Time;durP1;ratioP1;P1;durP2;ratioP2;P2;SDS_P1;SDS_P2;PMS_P1;PMS_P2;Temp;Humidity;BMP_temperature;BMP_pressure;BME280_temperature;BME280_humidity;BME280_pressure;Samples;Min_cycle;Max_cycle;Signal;HPM_P1;HPM_P2
2024/02/17 00:02:15;;;;;;;14.47;10.87;;;;;;;11.46;100.00;98785.34;5103721;28;20577;-79
2024/02/17 00:04:43;;;;;;;13.83;10.37;;;;;;;11.48;100.00;98791.38;5103785;28;20230;-79
2024/02/17 00:07:09;;;;;;;13.77;10.43;;;;;;;11.47;100.00;98787.03;5104226;28;20217;-79
2024/02/17 00:09:36;;;;;;;13.87;10.47;;;;;;;11.47;100.00;98792.34;5104054;28;20299;-79
2024/02/17 00:12:02;;;;;;;14.20;10.43;;;;;;;11.49;100.00;98790.47;5104226;28;20237;-79
2024/02/17 00:14:29;;;;;;;14.73;10.50;;;;;;;11.49;100.00;98788.66;5100969;28;20293;-79
2024/02/17 00:16:55;;;;;;;14.17;10.50;;;;;;;11.50;100.00;98792.16;5093871;28;20206;-79
2024/02/17 00:19:22;;;;;;;16.17;12.03;;;;;;;11.49;100.00;98793.09;5099653;28;20293;-78
2024/02/17 00:21:50;;;;;;;15.80;11.00;;;;;;;11.48;100.00;98794.03;5102229;28;20290;-78
2024/02/17 00:24:16;;;;;;;15.47;11.33;;;;;;;11.49;100.00;98801.88;5102648;28;20226;-78
2024/02/17 00:26:43;;;;;;;17.23;11.47;;;;;;;11.50;100.00;98805.41;5103612;28;20206;-78
2024/02/17 00:29:10;;;;;;;15.50;11.53;;;;;;;11.54;100.00;98798.94;5103055;28;20237;-78
2024/02/17 00:31:36;;;;;;;12.87;10.30;;;;;;;11.53;100.00;98797.25;5102564;28;20276;-78
2024/02/17 00:34:04;;;;;;;12.17;8.63;;;;;;;11.55;100.00;98811.25;5102217;28;20666;-78
2024/02/17 00:36:30;;;;;;;10.80;7.80;;;;;;;11.52;100.00;98800.84;5103026;28;20672;-78
2024/02/17 00:38:58;;;;;;;8.63;6.73;;;;;;;11.49;100.00;98809.81;5102617;28;20216;-78
2024/02/17 00:41:25;;;;;;;8.53;6.20;;;;;;;11.49;100.00;98811.63;5100374;28;20230;-78
2024/02/17 00:43:51;;;;;;;7.30;6.27;;;;;;;11.47;100.00;98811.72;5102802;28;20219;-78
2024/02/17 00:46:18;;;;;;;6.20;5.07;;;;;;;11.47;100.00;98821.44;5102678;28;20207;-77
2024/02/17 00:48:45;;;;;;;5.70;4.77;;;;;;;11.47;100.00;98824.09;5102727;28;20213;-78
2024/02/17 00:51:14;;;;;;;5.50;4.23;;;;;;;11.45;100.00;98820.69;5102254;28;20210;-78
2024/02/17 00:53:42;;;;;;;6.43;4.23;;;;;;;11.44;100.00;98824.31;5103248;28;20210;-78
2024/02/17 00:56:11;;;;;;;5.97;4.30;;;;;;;11.42;100.00;98827.03;5101850;28;20228;-78
2024/02/17 00:58:38;;;;;;;4.53;4.13;;;;;;;11.44;100.00;98825.13;5100607;28;20289;-78
2024/02/17 01:01:05;;;;;;;5.13;4.27;;;;;;;11.40;100.00;98828.06;5101202;28;20206;-77
2024/02/17 01:03:31;;;;;;;6.37;4.70;;;;;;;11.41;100.00;98830.63;5100422;28;20206;-78
2024/02/17 01:05:58;;;;;;;5.23;4.20;;;;;;;11.42;100.00;98831.47;5100274;28;20234;-78
2024/02/17 01:08:24;;;;;;;5.33;4.40;;;;;;;11.39;100.00;98839.59;5100468;28;20217;-78
2024/02/17 01:10:51;;;;;;;5.37;4.07;;;;;;;11.41;100.00;98835.06;5100779;28;20279;-77
2024/02/17 01:13:19;;;;;;;5.77;4.20;;;;;;;11.38;100.00;98836.09;5099615;28;20231;-78
2024/02/17 01:15:46;;;;;;;4.83;4.37;;;;;;;11.41;100.00;98840.34;5098251;28;20202;-77
2024/02/17 01:18:12;;;;;;;5.80;4.33;;;;;;;11.41;100.00;98840.34;5095149;28;20293;-77
2024/02/17 01:20:39;;;;;;;4.97;3.97;;;;;;;11.42;100.00;98844.69;5095894;28;20209;-78
2024/02/17 01:23:06;;;;;;;6.80;4.80;;;;;;;11.42;100.00;98847.34;5094070;28;20321;-78
2024/02/17 01:25:32;;;;;;;4.73;4.23;;;;;;;11.42;100.00;98844.69;5094291;28;20230;-77
2024/02/17 01:27:59;;;;;;;5.47;4.00;;;;;;;11.40;100.00;98844.81;5094233;28;20301;-77
2024/02/17 01:30:26;;;;;;;5.80;4.70;;;;;;;11.40;100.00;98849.25;5094448;28;20210;-77
2024/02/17 01:32:53;;;;;;;5.83;4.27;;;;;;;11.39;100.00;98848.41;5094483;28;20227;-77
2024/02/17 01:35:19;;;;;;;5.40;4.40;;;;;;;11.38;100.00;98851.16;5094207;28;20202;-77
2024/02/17 01:37:48;;;;;;;5.60;4.30;;;;;;;11.40;100.00;98851.88;5094556;28;20610;-77
2024/02/17 01:40:17;;;;;;;5.57;4.20;;;;;;;11.40;100.00;98857.19;5099193;28;20689;-77
2024/02/17 01:42:44;;;;;;;4.83;3.90;;;;;;;11.36;100.00;98859.16;5098186;28;20226;-78
2024/02/17 01:45:10;;;;;;;5.73;4.20;;;;;;;11.35;100.00;98859.25;5098308;28;20230;-77
2024/02/17 01:47:39;;;;;;;5.23;4.23;;;;;;;11.34;100.00;98860.19;5098403;28;20267;-77
2024/02/17 01:50:06;;;;;;;5.30;4.23;;;;;;;11.37;100.00;98866.16;5098284;28;20219;-78
2024/02/17 01:52:33;;;;;;;5.40;4.10;;;;;;;11.35;100.00;98864.56;5098157;28;20227;-77
2024/02/17 01:55:01;;;;;;;5.07;4.10;;;;;;;11.36;100.00;98861.81;5098112;28;20213;-77
2024/02/17 01:57:27;;;;;;;5.20;3.83;;;;;;;11.41;100.00;98872.13;5097777;28;20203;-77
2024/02/17 01:59:55;;;;;;;5.37;3.40;;;;;;;11.37;100.00;98870.63;5098689;28;20209;-78
2024/02/17 02:02:22;;;;;;;4.77;3.27;;;;;;;11.34;100.00;98876.94;5099566;28;20226;-77
2024/02/17 02:04:50;;;;;;;3.13;2.80;;;;;;;11.35;100.00;98883.06;5099468;28;20302;-78
2024/02/17 02:07:16;;;;;;;2.90;2.10;;;;;;;11.37;100.00;98886.50;5097649;28;20207;-77
2024/02/17 02:09:44;;;;;;;1.90;1.60;;;;;;;11.39;100.00;98885.47;5095015;28;20214;-77
2024/02/17 02:12:11;;;;;;;2.53;1.97;;;;;;;11.32;100.00;98884.09;5095048;28;20225;-78
2024/02/17 02:14:37;;;;;;;3.27;2.33;;;;;;;11.25;100.00;98889.88;5096611;28;20238;-77
2024/02/17 02:17:04;;;;;;;4.33;2.93;;;;;;;11.20;100.00;98897.25;5096660;28;20742;-78
2024/02/17 02:19:30;;;;;;;6.40;4.00;;;;;;;11.12;100.00;98891.56;5096106;28;20260;-77
2024/02/17 02:21:58;;;;;;;5.17;3.70;;;;;;;11.08;100.00;98897.97;5096731;28;20269;-77
2024/02/17 02:24:25;;;;;;;7.13;4.67;;;;;;;11.07;100.00;98906.84;5096553;28;20320;-77
2024/02/17 02:26:53;;;;;;;5.63;4.13;;;;;;;11.01;100.00;98904.56;5096279;28;20437;-77
2024/02/17 02:29:19;;;;;;;7.50;4.63;;;;;;;11.00;100.00;98902.88;5097769;28;20677;-77
2024/02/17 02:31:46;;;;;;;8.23;5.03;;;;;;;10.99;100.00;98917.00;5096671;28;20230;-77
2024/02/17 02:34:12;;;;;;;9.13;5.77;;;;;;;10.97;100.00;98916.25;5096729;28;20208;-77
2024/02/17 02:36:41;;;;;;;10.10;6.03;;;;;;;10.95;100.00;98920.78;5096989;28;20236;-77
2024/02/17 02:39:08;;;;;;;11.13;6.23;;;;;;;10.91;100.00;98929.84;5095518;28;20299;-77
2024/02/17 02:41:34;;;;;;;10.67;6.27;;;;;;;10.91;100.00;98929.84;5095695;28;20253;-77
2024/02/17 02:44:02;;;;;;;11.87;7.03;;;;;;;10.91;100.00;98932.47;5095407;28;20238;-77
2024/02/17 02:46:29;;;;;;;10.17;6.33;;;;;;;10.91;100.00;98940.41;5094129;28;20230;-77
2024/02/17 02:48:55;;;;;;;9.70;6.40;;;;;;;10.83;100.00;98938.19;5093825;28;20223;-77
2024/02/17 02:51:22;;;;;;;12.77;7.63;;;;;;;10.82;100.00;98947.09;5093340;28;20234;-77
2024/02/17 02:53:48;;;;;;;12.73;7.10;;;;;;;10.76;100.00;98949.25;5093981;28;20214;-77
2024/02/17 02:56:15;;;;;;;13.50;7.53;;;;;;;10.76;100.00;98958.00;5093972;28;20235;-77
2024/02/17 02:58:43;;;;;;;12.90;7.40;;;;;;;10.74;100.00;98949.31;5093629;28;20217;-77
2024/02/17 03:01:11;;;;;;;13.53;7.93;;;;;;;10.75;100.00;98947.50;5093742;28;20220;-77
2024/02/17 03:03:38;;;;;;;15.90;9.47;;;;;;;10.70;100.00;98953.06;5094803;28;20297;-77
2024/02/17 03:06:04;;;;;;;17.43;9.40;;;;;;;10.66;100.00;98961.25;5095059;28;20594;-77
2024/02/17 03:08:31;;;;;;;18.60;9.87;;;;;;;10.62;100.00;98963.22;5095541;28;20682;-77
2024/02/17 03:10:57;;;;;;;17.83;8.97;;;;;;;10.62;100.00;98963.22;5095136;28;20209;-77
2024/02/17 03:13:24;;;;;;;16.70;10.13;;;;;;;10.58;100.00;98963.50;5095479;28;20214;-77
2024/02/17 03:15:51;;;;;;;19.70;9.43;;;;;;;10.65;100.00;98964.84;5095313;28;20209;-77
2024/02/17 03:18:18;;;;;;;15.97;9.70;;;;;;;10.64;100.00;98964.00;5095060;28;20395;-77
2024/02/17 03:20:45;;;;;;;20.40;10.87;;;;;;;10.57;100.00;98970.56;5095409;28;20295;-77
2024/02/17 03:23:12;;;;;;;21.63;11.37;;;;;;;10.58;100.00;98974.06;5095005;28;20228;-77
2024/02/17 03:25:38;;;;;;;21.63;11.23;;;;;;;10.55;100.00;98974.22;5095308;28;20235;-77
2024/02/17 03:28:05;;;;;;;23.13;11.67;;;;;;;10.54;100.00;98981.31;5095364;28;20219;-77
2024/02/17 03:30:32;;;;;;;23.60;12.27;;;;;;;10.53;100.00;98976.13;5095704;28;20203;-77
2024/02/17 03:32:58;;;;;;;25.67;12.13;;;;;;;10.54;100.00;98983.09;5095276;28;20725;-77
2024/02/17 03:35:26;;;;;;;26.30;12.47;;;;;;;10.57;100.00;98980.28;5095933;28;20273;-77
2024/02/17 03:37:53;;;;;;;26.93;12.77;;;;;;;10.53;100.00;98986.69;5095338;28;20210;-77
2024/02/17 03:40:20;;;;;;;22.63;11.97;;;;;;;10.52;100.00;98990.28;5094925;28;20217;-77
2024/02/17 03:42:47;;;;;;;23.17;12.60;;;;;;;10.48;100.00;98999.28;5093414;28;20250;-77
2024/02/17 03:45:14;;;;;;;19.50;10.00;;;;;;;10.46;100.00;99011.75;5093239;28;20236;-78
2024/02/17 03:47:40;;;;;;;18.03;9.53;;;;;;;10.38;100.00;99006.88;5095395;28;20208;-78
2024/02/17 03:50:07;;;;;;;17.53;9.67;;;;;;;10.31;100.00;99007.28;5095126;28;20213;-78
2024/02/17 03:52:35;;;;;;;17.57;9.27;;;;;;;10.26;100.00;99019.88;5095091;28;20230;-78
2024/02/17 03:55:02;;;;;;;18.00;10.77;;;;;;;10.26;100.00;99017.25;5095179;28;20210;-77
2024/02/17 03:57:28;;;;;;;22.60;12.30;;;;;;;10.27;100.00;99011.06;5094317;28;20213;-78
2024/02/17 03:59:55;;;;;;;21.47;11.80;;;;;;;10.30;100.00;99018.78;5094852;28;20238;-78
2024/02/17 04:02:21;;;;;;;23.17;11.50;;;;;;;10.30;100.00;99011.75;5093884;28;20228;-78
2024/02/17 04:04:48;;;;;;;25.20;12.73;;;;;;;10.33;100.00;99027.41;5094631;28;20209;-78
2024/02/17 04:07:14;;;;;;;27.60;13.00;;;;;;;10.35;100.00;99029.97;5094487;28;20213;-78
2024/02/17 04:09:42;;;;;;;24.33;12.40;;;;;;;10.35;100.00;99029.97;5094133;28;20216;-78
2024/02/17 04:12:09;;;;;;;25.63;13.73;;;;;;;10.40;100.00;99034.06;5094136;28;20231;-78
2024/02/17 04:14:35;;;;;;;23.60;12.47;;;;;;;10.37;100.00;99033.38;5094276;28;20215;-78
2024/02/17 04:17:02;;;;;;;27.70;13.10;;;;;;;10.38;100.00;99040.38;5094358;28;20287;-78
2024/02/17 04:19:29;;;;;;;27.10;13.50;;;;;;;10.37;100.00;99049.22;5093803;28;20689;-78
2024/02/17 04:21:55;;;;;;;26.77;13.60;;;;;;;10.34;100.00;99049.41;5094194;28;20237;-78
2024/02/17 04:24:22;;;;;;;28.63;13.63;;;;;;;10.37;100.00;99065.09;5094153;28;20710;-78
2024/02/17 04:26:50;;;;;;;25.10;13.37;;;;;;;10.33;100.00;99066.22;5094254;28;20224;-78
2024/02/17 04:29:18;;;;;;;28.50;13.93;;;;;;;10.29;100.00;99068.13;5094213;28;20221;-78
2024/02/17 04:31:45;;;;;;;24.83;13.47;;;;;;;10.28;100.00;99079.63;5093731;28;20284;-78
2024/02/17 04:34:12;;;;;;;27.80;13.30;;;;;;;10.23;100.00;99078.19;5093513;28;20288;-78
2024/02/17 04:36:38;;;;;;;27.77;13.63;;;;;;;10.24;100.00;99098.38;5094288;28;20209;-77
2024/02/17 04:39:05;;;;;;;26.90;13.83;;;;;;;10.23;100.00;99096.69;5093448;28;20625;-78
2024/02/17 04:41:31;;;;;;;29.07;14.27;;;;;;;10.21;100.00;99103.84;5093859;28;20227;-78
2024/02/17 04:43:59;;;;;;;29.23;14.57;;;;;;;10.19;100.00;99103.06;5093845;28;20203;-78
2024/02/17 04:46:26;;;;;;;30.23;15.93;;;;;;;10.16;100.00;99109.34;5093247;28;20228;-78
2024/02/17 04:48:52;;;;;;;29.67;14.83;;;;;;;10.16;100.00;99109.34;5093414;28;20226;-78
2024/02/17 04:51:19;;;;;;;32.37;15.17;;;;;;;10.15;100.00;99112.09;5093202;28;20229;-77
2024/02/17 04:53:45;;;;;;;32.97;16.40;;;;;;;10.16;100.00;99119.09;5093421;28;20210;-78
2024/02/17 04:56:12;;;;;;;33.77;17.53;;;;;;;10.16;100.00;99127.84;5093318;28;20297;-78
2024/02/17 04:58:38;;;;;;;37.40;18.73;;;;;;;10.18;100.00;99127.78;5093184;28;20208;-78
2024/02/17 05:01:09;;;;;;;31.13;16.83;;;;;;;10.16;100.00;99132.28;5093229;28;20614;-78
2024/02/17 05:03:35;;;;;;;33.20;17.03;;;;;;;10.18;100.00;99127.78;5093132;28;20295;-78
2024/02/17 05:06:02;;;;;;;34.83;17.60;;;;;;;10.15;100.00;99133.22;5092433;28;20226;-78
2024/02/17 05:08:29;;;;;;;33.33;16.63;;;;;;;10.15;100.00;99138.50;5092927;28;20220;-78
2024/02/17 05:10:55;;;;;;;35.57;17.57;;;;;;;10.18;100.00;99138.34;5092612;28;20727;-78
2024/02/17 05:13:22;;;;;;;31.47;16.33;;;;;;;10.22;100.00;99146.00;5092021;28;20319;-78
2024/02/17 05:15:48;;;;;;;34.83;17.63;;;;;;;10.18;100.00;99146.25;5092711;28;20206;-78
2024/02/17 05:18:16;;;;;;;33.57;18.10;;;;;;;10.16;100.00;99153.41;5092574;28;20206;-78
2024/02/17 05:20:43;;;;;;;35.13;16.03;;;;;;;10.15;100.00;99149.91;5092732;28;20666;-78
2024/02/17 05:23:09;;;;;;;36.70;17.43;;;;;;;10.15;100.00;99154.34;5092844;28;20219;-78
2024/02/17 05:25:36;;;;;;;35.07;16.67;;;;;;;10.11;100.00;99163.38;5100161;28;20222;-78
2024/02/17 05:28:02;;;;;;;35.13;16.73;;;;;;;10.10;100.00;99159.84;5099682;28;20236;-78
2024/02/17 05:30:29;;;;;;;31.33;15.27;;;;;;;10.11;100.00;99163.38;5099954;28;20221;-78
2024/02/17 05:32:55;;;;;;;37.07;16.63;;;;;;;10.11;100.00;99168.66;5099690;28;20227;-78
2024/02/17 05:35:23;;;;;;;33.57;15.40;;;;;;;10.09;100.00;99176.63;5098207;28;20217;-78
2024/02/17 05:37:49;;;;;;;37.57;15.83;;;;;;;10.05;100.00;99179.53;5092778;28;20681;-78
2024/02/17 05:40:16;;;;;;;31.37;14.40;;;;;;;10.01;100.00;99183.22;5093373;28;20602;-78
2024/02/17 05:42:43;;;;;;;33.83;14.40;;;;;;;9.99;100.00;99185.94;5092688;28;20228;-77
2024/02/17 05:45:10;;;;;;;31.83;15.00;;;;;;;10.01;100.00;99183.22;5092350;28;20217;-78
2024/02/17 05:47:37;;;;;;;30.60;14.57;;;;;;;10.00;100.00;99197.34;5092090;28;20218;-78
2024/02/17 05:50:04;;;;;;;31.73;14.80;;;;;;;9.92;100.00;99191.59;5092336;28;20218;-78
2024/02/17 05:52:32;;;;;;;30.13;14.17;;;;;;;9.82;100.00;99193.84;5092214;28;20256;-78
2024/02/17 05:54:59;;;;;;;30.63;14.53;;;;;;;9.71;100.00;99201.44;5092489;28;20215;-78
2024/02/17 05:57:26;;;;;;;28.40;13.87;;;;;;;9.63;100.00;99200.09;5092086;28;20209;-78
2024/02/17 05:59:52;;;;;;;33.47;15.80;;;;;;;9.64;100.00;99205.31;5092260;28;20206;-78
2024/02/17 06:02:19;;;;;;;32.83;14.57;;;;;;;9.59;100.00;99211.72;5092022;28;20230;-77
2024/02/17 06:04:45;;;;;;;31.40;14.70;;;;;;;9.52;100.00;99216.44;5092755;28;20207;-77
2024/02/17 06:07:12;;;;;;;32.87;15.47;;;;;;;9.48;100.00;99219.31;5092094;28;20244;-78
2024/02/17 06:09:40;;;;;;;34.53;15.20;;;;;;;9.46;100.00;99223.78;5091908;28;20214;-78
2024/02/17 06:12:07;;;;;;;31.67;14.37;;;;;;;9.33;100.00;99226.16;5090652;28;20244;-78
2024/02/17 06:14:34;;;;;;;36.50;14.93;;;;;;;9.26;100.00;99237.06;5091738;28;20207;-77
2024/02/17 06:17:05;;;;;;;32.27;14.17;;;;;;;9.16;100.00;99238.41;5091646;28;20220;-78
2024/02/17 06:22:14;;;;;;;35.17;14.97;;;;;;;9.06;100.00;99237.16;5070427;28;20224;-78
2024/02/17 06:24:42;;;;;;;34.30;14.87;;;;;;;8.97;100.00;99237.53;5093425;28;20313;-78
2024/02/17 06:27:10;;;;;;;35.50;15.17;;;;;;;8.86;100.00;99250.34;5094900;28;20234;-77
2024/02/17 06:29:37;;;;;;;39.80;15.23;;;;;;;8.83;100.00;99255.78;5094321;28;20690;-77
2024/02/17 06:32:04;;;;;;;32.07;14.30;;;;;;;8.77;100.00;99258.69;5095380;28;20228;-77
2024/02/17 06:34:30;;;;;;;34.47;14.63;;;;;;;8.74;100.00;99257.03;5095475;28;20213;-77
2024/02/17 06:36:57;;;;;;;40.93;15.90;;;;;;;8.72;100.00;99258.91;5095264;28;20591;-77
2024/02/17 06:39:23;;;;;;;37.03;14.60;;;;;;;8.69;100.00;99264.28;5094874;28;20263;-77
2024/02/17 06:41:51;;;;;;;39.57;15.27;;;;;;;8.69;100.00;99266.09;5094904;28;20312;-77
2024/02/17 06:44:19;;;;;;;43.70;16.73;;;;;;;8.77;100.00;99274.50;5095365;28;20213;-77
2024/02/17 06:46:46;;;;;;;40.07;17.07;;;;;;;8.72;100.00;99285.25;5095087;28;20231;-78
2024/02/17 06:49:12;;;;;;;38.03;15.57;;;;;;;8.74;100.00;99293.06;5094875;28;20295;-77
2024/02/17 06:51:39;;;;;;;43.80;16.73;;;;;;;8.72;100.00;99294.91;5094687;28;20240;-77
2024/02/17 06:54:05;;;;;;;42.77;15.47;;;;;;;8.76;100.00;99285.97;5094756;28;20232;-77
2024/02/17 06:56:33;;;;;;;41.93;16.07;;;;;;;8.73;100.00;99291.34;5096113;28;20293;-77
2024/02/17 06:59:01;;;;;;;45.90;16.87;;;;;;;8.83;100.00;99297.94;5094812;28;20210;-77
2024/02/17 07:01:27;;;;;;;38.40;16.27;;;;;;;8.80;100.00;99293.66;5094604;28;20229;-77
2024/02/17 07:03:54;;;;;;;46.20;16.33;;;;;;;8.80;100.00;99301.56;5095316;28;20225;-77
2024/02/17 07:06:20;;;;;;;43.30;16.73;;;;;;;8.86;100.00;99305.72;5096265;28;20598;-79
2024/02/17 07:08:48;;;;;;;40.93;17.30;;;;;;;8.95;100.00;99314.09;5101633;28;20308;-78
2024/02/17 07:11:14;;;;;;;38.13;15.90;;;;;;;8.95;100.00;99314.09;5101905;28;20228;-78
2024/02/17 07:13:43;;;;;;;37.30;16.83;;;;;;;8.95;100.00;99318.50;5102679;28;20221;-78
2024/02/17 07:16:11;;;;;;;41.27;15.90;;;;;;;8.93;100.00;99321.19;5102510;28;20279;-78
2024/02/17 07:18:39;;;;;;;39.73;15.70;;;;;;;9.04;100.00;99328.63;5101966;28;20220;-78
2024/02/17 07:21:06;;;;;;;35.13;15.53;;;;;;;8.98;100.00;99339.44;5100904;28;20251;-78
2024/02/17 07:23:34;;;;;;;34.87;14.90;;;;;;;9.03;100.00;99332.19;5102469;28;20213;-78
2024/02/17 07:26:04;;;;;;;37.23;15.00;;;;;;;9.12;100.00;99332.66;5102603;28;20707;-79
2024/02/17 07:28:36;;;;;;;31.50;14.13;;;;;;;9.21;100.00;99341.94;5102303;28;20216;-78
2024/02/17 07:31:02;;;;;;;32.83;14.73;;;;;;;9.20;100.00;99349.00;5102501;28;20217;-79
2024/02/17 07:33:30;;;;;;;28.13;13.90;;;;;;;9.23;100.00;99353.31;5102529;28;20209;-78
2024/02/17 07:35:57;;;;;;;27.23;13.70;;;;;;;9.31;100.00;99362.56;5101244;28;20217;-79
2024/02/17 07:38:23;;;;;;;25.50;12.73;;;;;;;9.36;100.00;99357.09;5101979;28;20211;-79
2024/02/17 07:40:50;;;;;;;25.87;12.80;;;;;;;9.40;100.00;99364.81;5101704;28;20286;-78
2024/02/17 07:43:18;;;;;;;22.47;11.53;;;;;;;9.37;100.00;99369.34;5101738;28;20230;-79
2024/02/17 07:45:46;;;;;;;26.53;13.10;;;;;;;9.40;100.00;99363.94;5102247;28;20210;-79
2024/02/17 07:48:13;;;;;;;25.50;12.20;;;;;;;9.46;100.00;99368.94;5100866;28;20207;-78
2024/02/17 07:50:41;;;;;;;24.80;12.27;;;;;;;9.46;100.00;99375.09;5102359;28;20207;-79
2024/02/17 07:53:08;;;;;;;28.57;13.00;;;;;;;9.45;100.00;99383.06;5102896;28;20257;-79
2024/02/17 07:55:37;;;;;;;24.37;12.27;;;;;;;9.50;100.00;99396.91;5099448;28;20210;-78
2024/02/17 07:58:08;;;;;;;23.83;12.50;;;;;;;9.50;100.00;99402.19;5100569;28;20218;-78
2024/02/17 08:00:34;;;;;;;23.80;12.17;;;;;;;9.45;100.00;99401.53;5102252;28;20214;-79
2024/02/17 08:03:01;;;;;;;21.00;11.77;;;;;;;9.49;100.00;99405.75;5102046;28;20661;-79
2024/02/17 08:05:27;;;;;;;23.10;11.80;;;;;;;9.52;100.00;99417.03;5098631;28;20210;-79
2024/02/17 08:07:55;;;;;;;19.50;11.00;;;;;;;9.58;100.00;99421.16;5100803;28;20313;-79
2024/02/17 08:10:22;;;;;;;21.93;11.50;;;;;;;9.59;100.00;99422.88;5100015;28;20238;-77
2024/02/17 08:12:48;;;;;;;22.03;11.67;;;;;;;9.60;100.00;99440.44;5094019;28;20306;-78
2024/02/17 08:15:15;;;;;;;19.30;10.73;;;;;;;9.56;100.00;99439.72;5094283;28;20206;-77
2024/02/17 08:17:42;;;;;;;18.73;10.23;;;;;;;9.54;100.00;99440.72;5094061;28;20298;-78
2024/02/17 08:20:10;;;;;;;19.47;10.60;;;;;;;9.49;100.00;99448.81;5092813;28;20267;-78
2024/02/17 08:22:37;;;;;;;18.47;10.97;;;;;;;9.49;100.00;99454.09;5094407;28;20606;-78
2024/02/17 08:25:06;;;;;;;19.87;10.83;;;;;;;9.58;100.00;99458.13;5096283;28;20611;-78
2024/02/17 08:27:35;;;;;;;20.97;10.93;;;;;;;9.60;100.00;99456.28;5104808;28;20224;-80
2024/02/17 08:30:02;;;;;;;17.30;9.43;;;;;;;9.57;100.00;99446.72;5104178;28;20235;-80
2024/02/17 08:32:29;;;;;;;20.33;12.10;;;;;;;9.57;100.00;99457.28;5104904;28;20237;-79
2024/02/17 08:34:56;;;;;;;21.70;11.53;;;;;;;9.53;100.00;99455.69;5103453;28;20305;-80
2024/02/17 08:37:24;;;;;;;21.77;11.07;;;;;;;9.61;100.00;99468.56;5100169;28;20216;-79
2024/02/17 08:39:51;;;;;;;24.60;13.30;;;;;;;9.65;100.00;99462.19;5100700;28;20234;-79
2024/02/17 08:42:18;;;;;;;22.10;11.63;;;;;;;9.73;100.00;99462.72;5100564;28;20224;-79
2024/02/17 08:44:46;;;;;;;23.10;12.63;;;;;;;9.70;100.00;99473.41;5097536;28;20206;-77
2024/02/17 08:47:13;;;;;;;23.47;12.93;;;;;;;9.66;100.00;99471.84;5091136;28;20326;-77
2024/02/17 08:49:39;;;;;;;23.50;12.43;;;;;;;9.69;100.00;99466.44;5095766;28;20211;-78
2024/02/17 08:52:06;;;;;;;21.60;12.57;;;;;;;9.80;100.00;99472.09;5097586;28;20236;-79
2024/02/17 08:54:33;;;;;;;21.90;12.00;;;;;;;9.79;100.00;99463.28;5100738;28;20220;-80
2024/02/17 08:56:59;;;;;;;23.43;11.70;;;;;;;9.96;100.00;99465.16;5101845;28;20562;-81
2024/02/17 08:59:27;;;;;;;25.13;12.53;;;;;;;10.07;100.00;99476.13;5099327;28;20297;-80
2024/02/17 09:01:54;;;;;;;20.00;11.77;;;;;;;10.11;100.00;99475.94;5096776;28;20228;-79
2024/02/17 09:04:20;;;;;;;24.13;12.77;;;;;;;10.28;100.00;99478.63;5094652;28;20207;-80
2024/02/17 09:06:47;;;;;;;21.60;11.70;;;;;;;10.36;100.00;99479.16;5093229;28;20237;-77
2024/02/17 09:09:14;;;;;;;21.97;12.70;;;;;;;10.53;100.00;99484.47;5091471;28;20292;-77
2024/02/17 09:11:40;;;;;;;22.97;11.90;;;;;;;10.66;100.00;99492.69;5091769;28;20222;-77
2024/02/17 09:14:07;;;;;;;21.63;11.97;;;;;;;10.73;100.00;99492.34;5091923;28;20216;-78
2024/02/17 09:16:35;;;;;;;23.33;12.80;;;;;;;10.85;100.00;99497.03;5091703;28;20210;-78
2024/02/17 09:19:01;;;;;;;20.93;12.50;;;;;;;10.99;100.00;99501.63;5091760;28;20207;-77
2024/02/17 09:21:28;;;;;;;16.37;10.93;;;;;;;11.00;100.00;99516.59;5091645;28;20243;-78
2024/02/17 09:23:54;;;;;;;18.20;11.10;;;;;;;11.14;100.00;99514.94;5092402;28;20829;-78
2024/02/17 09:26:21;;;;;;;17.80;9.63;;;;;;;11.24;100.00;99515.34;5092311;28;20205;-78
2024/02/17 09:28:48;;;;;;;15.33;9.53;;;;;;;11.24;100.00;99512.69;5091845;28;20819;-78
2024/02/17 09:31:15;;;;;;;15.57;10.10;;;;;;;11.34;100.00;99512.19;5092567;28;20202;-78
2024/02/17 09:33:42;;;;;;;19.03;10.60;;;;;;;11.37;100.00;99527.06;5092026;28;20211;-78
2024/02/17 09:36:09;;;;;;;15.17;10.07;;;;;;;11.50;100.00;99538.75;5092483;28;20210;-78
2024/02/17 09:38:35;;;;;;;15.43;9.77;;;;;;;11.65;100.00;99536.19;5092526;28;20208;-78
2024/02/17 09:41:05;;;;;;;16.87;9.47;;;;;;;11.80;100.00;99534.56;5094028;28;20684;-79
2024/02/17 09:43:32;;;;;;;16.40;9.30;;;;;;;11.80;100.00;99531.91;5093473;28;20663;-79
2024/02/17 09:46:02;;;;;;;15.47;9.40;;;;;;;11.78;100.00;99536.41;5093144;28;20697;-81
2024/02/17 09:48:31;;;;;;;17.70;9.97;;;;;;;11.72;100.00;99547.31;5093622;28;20283;-78
2024/02/17 09:51:01;;;;;;;16.73;10.80;;;;;;;11.74;100.00;99548.94;5090796;28;20835;-79
2024/02/17 09:53:31;;;;;;;14.77;9.40;;;;;;;11.64;100.00;99553.03;5085195;28;20203;-79
2024/02/17 09:55:58;;;;;;;14.53;9.57;;;;;;;11.54;100.00;99546.44;5085887;28;20625;-79
2024/02/17 09:58:25;;;;;;;15.63;10.00;;;;;;;11.49;100.00;99553.75;5072841;28;20218;-79
2024/02/17 10:00:51;;;;;;;16.43;10.10;;;;;;;11.57;100.00;99561.31;5075305;28;20220;-79
2024/02/17 10:03:19;;;;;;;14.90;9.40;;;;;;;11.66;100.00;99558.22;5075399;28;20244;-79
2024/02/17 10:05:45;;;;;;;16.17;10.00;;;;;;;11.46;100.00;99558.34;5075760;28;20628;-79
2024/02/17 10:08:14;;;;;;;14.97;9.63;;;;;;;11.42;100.00;99562.06;5076129;28;20228;-79
2024/02/17 10:10:43;;;;;;;14.27;9.53;;;;;;;11.40;100.00;99567.47;5077057;28;20674;-80
2024/02/17 10:13:16;;;;;;;15.33;9.27;;;;;;;11.59;100.00;99570.06;5079486;28;20229;-80
2024/02/17 10:15:43;;;;;;;15.17;9.40;;;;;;;11.89;100.00;99563.19;5078880;28;20214;-80
2024/02/17 10:18:09;;;;;;;15.03;9.70;;;;;;;12.21;100.00;99572.97;5077229;28;20207;-80
2024/02/17 10:20:37;;;;;;;12.93;8.67;;;;;;;12.54;100.00;99571.19;5079246;28;20207;-79
2024/02/17 10:23:04;;;;;;;14.77;8.60;;;;;;;12.83;100.00;99554.53;5079210;28;20226;-79
2024/02/17 10:25:34;;;;;;;12.10;8.20;;;;;;;12.75;100.00;99541.66;5076820;28;20222;-79
2024/02/17 10:28:02;;;;;;;12.90;8.63;;;;;;;12.89;100.00;99555.00;5076902;28;20227;-79
2024/02/17 10:30:29;;;;;;;11.40;8.17;;;;;;;12.86;100.00;99547.25;5077006;28;20217;-79
2024/02/17 10:32:58;;;;;;;13.07;9.75;;;;;;;13.11;100.00;99552.03;5080147;28;20426;-80
2024/02/17 10:35:28;;;;;;;12.20;8.33;;;;;;;12.97;100.00;99536.06;5078726;28;20217;-81
2024/02/17 10:37:59;;;;;;;11.60;7.83;;;;;;;12.66;98.34;99533.38;5077849;28;20672;-79
2024/02/17 10:40:26;;;;;;;12.30;7.93;;;;;;;12.73;99.24;99542.69;5078025;28;20280;-79
2024/02/17 10:42:54;;;;;;;9.13;6.77;;;;;;;12.64;100.00;99543.19;5078550;28;20720;-79
2024/02/17 10:45:21;;;;;;;10.27;7.10;;;;;;;12.59;100.00;99553.22;5077551;28;20214;-80
2024/02/17 10:47:48;;;;;;;11.73;7.77;;;;;;;12.43;100.00;99562.94;5076760;28;20227;-79
2024/02/17 10:50:16;;;;;;;11.73;7.50;;;;;;;12.41;100.00;99567.47;5077184;28;20214;-80
2024/02/17 10:52:45;;;;;;;14.60;8.40;;;;;;;12.45;100.00;99566.34;5077028;28;20717;-79
2024/02/17 10:55:15;;;;;;;13.13;8.40;;;;;;;12.50;100.00;99572.28;5077613;28;20668;-80
2024/02/17 10:58:03;;;;;;;13.50;8.23;;;;;;;12.54;100.00;99576.47;5076596;28;20199;-79
2024/02/17 11:00:31;;;;;;;13.37;8.70;;;;;;;12.39;100.00;99583.47;5077274;28;20207;-79
2024/02/17 11:03:03;;;;;;;10.60;7.63;;;;;;;12.25;100.00;99579.84;5077566;28;20241;-80
2024/02/17 11:05:33;;;;;;;11.67;8.40;;;;;;;12.18;100.00;99575.78;5077760;28;20249;-80
2024/02/17 11:08:00;;;;;;;11.70;7.77;;;;;;;12.20;100.00;99585.38;5076676;28;20557;-80
2024/02/17 11:10:30;;;;;;;11.47;8.50;;;;;;;12.25;100.00;99582.47;5075992;28;20216;-80
2024/02/17 11:12:59;;;;;;;13.77;7.87;;;;;;;12.12;100.00;99577.00;5074597;28;20232;-80
2024/02/17 11:15:27;;;;;;;13.20;7.53;;;;;;;12.14;100.00;99579.53;5076110;28;20306;-80
2024/02/17 11:17:59;;;;;;;12.27;7.77;;;;;;;11.96;100.00;99585.78;5075784;28;20582;-80
2024/02/17 11:20:28;;;;;;;13.23;7.97;;;;;;;11.85;100.00;99590.78;5075812;28;20275;-80